Hasanuddin International Airport
WAAA : now visible

Aeroporto :











RITROVATECI SU...

 
LOGIN :

Iscrizione | Disclaimer

   EN    FR    IT 

 









Sommario :    VFR   VFR Marginale   IFR   IFR Intensivo   IFR Molto Intensivo
Visibilità : 
Base nubi : 
>= 8 km
>= 3000ft
5 / 8 km
1000 / 3000 ft
1500m / 5 km
500 / 1000 ft
800 / 1500m
200 / 500 ft
< 800m
< 200 ft
Simboli :   Temporali  Nebbia  Neve Forte  Precipitazioni Forti  Vento > 20 kt







- Altitudine del aeroporto : 47 ft
- Codice IATA : UPG


WAAA - Hasanuddin International

ULTIMO METAR :
  • 181300Z VRB02KT 8000 FEW018 27/26 Q1010 NOSIG

METARs OBSOLETI :
  • 181230Z 11003KT 7000 FEW019 27/27 Q1010 NOSIG
  • 181200Z 12001KT 8000 FEW020 27/26 Q1010 NOSIG
  • 181130Z 33002KT 8000 FEW018 28/26 Q1009 NOSIG
  • 181100Z 35003KT 9000 FEW020 28/26 Q1009 NOSIG
  • 181030Z 34005KT 9000 FEW020 28/25 Q1008 NOSIG

TAF TAF WAAA
Valido dal 18 a 12 ore il 19 a 18 ore UTC


181100Z 1812/1918 10005KT 8000 SCT018
BECMG 1821/1823 9999
BECMG 1901/1903 33010KT
FIR WAAF / Asia



MetMap, La meteo Aeronautica in un colpo d'occhio ! - Copyright ORBIFLY Dicembre 2007 - Disclaimer

ORBIFLY MET'MAP TEAM :

Programmazione e sviluppo : Alexandra Zaïnal
Concezione e sviluppo : Baudouin d'Aumeries
Co-Programmazione e sviluppo : Marc-Olivier Méhu
Supporto tecnico e logistico : Manuel Goepfert
Aiuto per la traduzione : Arnaldo La Scala

Contatto : metmap@orbifly.com




FONTI E CREDITI :

   NOAA       Earth
Advisory